Sun, 20 Jun 2021 05:01:17 UTC

Information for RPM brotli-1.0.7-10.fc32.armv7hl.rpm

ID20169765
Namebrotli
Version1.0.7
Release10.fc32
Epoch
Archarmv7hl
SummaryLossless compression algorithm
DescriptionBrotli is a generic-purpose lossless compression algorithm that compresses data using a combination of a modern variant of the LZ77 algorithm, Huffman coding and 2nd order context modeling, with a compression ratio comparable to the best currently available general-purpose compression methods. It is similar in speed with deflate but offers more dense compression.
Build Time2020-01-28 13:25:23 GMT
Size322,825
6ce95a4cee23f50418aa6b2303b63022
LicenseMIT
Buildrootf32-build-19252466-1345396
Provides
brotli = 1.0.7-10.fc32
brotli(armv7hl-32) = 1.0.7-10.fc32
Obsoletes No Obsoletes
Conflicts No Conflicts
Requires
ld-linux-armhf.so.3
ld-linux-armhf.so.3(GLIBC_2.4)
libbrotli(armv7hl-32) = 1.0.7-10.fc32
libc.so.6
libc.so.6(GLIBC_2.4)
libgcc_s.so.1
libgcc_s.so.1(GCC_3.5)
libm.so.6
libm.so.6(GLIBC_2.29)
rpmlib(CompressedFileNames) <= 3.0.4-1
rpmlib(FileDigests) <= 4.6.0-1
rpmlib(PayloadFilesHavePrefix) <= 4.0-1
rpmlib(PayloadIsZstd) <= 5.4.18-1
rtld(GNU_HASH)
Recommends No Recommends
Suggests No Suggests
Supplements No Supplements
Enhances No Enhances
Files
1 through 4 of 4
Name ascending sort Size
/usr/bin/brotli727,156
/usr/lib/.build-id0
/usr/lib/.build-id/430
/usr/lib/.build-id/43/dad328c6bb1c96a8f79ba3719b87d5f65cf55526
Component of
Page:
1 through 50 of 1608 >>>
Buildroot descending sort Created State
f32-build-23388509-2261574 2020-10-16 07:28:37 expired
f32-build-23378753-2259636 2020-10-15 20:14:49 expired
f32-build-23356840-2250372 2020-10-14 12:36:28 expired
f32-build-23321387-2238080 2020-10-12 18:49:00 expired
f32-build-23314886-2235679 2020-10-12 10:33:09 expired
f32-build-23314555-2235679 2020-10-12 10:16:23 expired
f32-build-23307392-2235101 2020-10-12 04:32:29 expired
f32-build-23290461-2230597 2020-10-11 15:36:34 expired
f32-build-23287967-2230597 2020-10-11 13:35:09 expired
f32-build-23278521-2229768 2020-10-11 04:09:51 expired
f32-build-23253665-2222722 2020-10-09 20:35:15 expired
f32-build-23250130-2221457 2020-10-09 16:34:01 expired
f32-build-23250096-2221457 2020-10-09 16:31:38 expired
f32-build-23250067-2221457 2020-10-09 16:30:53 expired
f32-build-23225062-2210674 2020-10-08 04:54:36 expired
f32-build-23224363-2210674 2020-10-08 03:38:04 expired
f32-build-23219088-2209405 2020-10-07 20:25:45 expired
f32-build-23218400-2208386 2020-10-07 18:39:14 expired
f32-build-23218027-2208386 2020-10-07 18:08:13 expired
f32-build-23210163-2205136 2020-10-07 08:47:25 expired
f32-build-23143428-2185470 2020-10-03 01:38:59 expired
f32-build-23112248-2171538 2020-09-30 19:54:46 expired
f32-build-23088129-2164488 2020-09-29 13:38:42 expired
f32-build-23088040-2163574 2020-09-29 13:25:21 expired
f32-build-23087332-2163574 2020-09-29 11:44:59 expired
f32-build-23075937-2161063 2020-09-28 19:34:46 expired
f32-build-23071093-2158808 2020-09-28 09:16:36 expired
f32-build-23071047-2158808 2020-09-28 09:04:16 expired
f32-build-23070728-2158808 2020-09-28 08:30:56 expired
f32-build-23070418-2158808 2020-09-28 08:18:17 expired
f32-build-23057364-2155126 2020-09-27 13:32:20 expired
f32-build-23014526-2148798 2020-09-25 18:31:39 expired
f32-build-23004278-2143360 2020-09-25 06:47:26 expired
f32-build-22993292-2143360 2020-09-24 22:04:42 expired
f32-build-22971171-2136242 2020-09-23 16:06:54 expired
f32-build-22952931-2131852 2020-09-22 20:39:29 expired
f32-build-22932370-2126107 2020-09-21 17:14:37 expired
f32-build-22930619-2123081 2020-09-21 13:56:06 expired
f32-build-22906584-2118430 2020-09-20 14:56:46 expired
f32-build-22906464-2118430 2020-09-20 14:40:09 expired
f32-build-22819257-2093716 2020-09-16 12:49:25 expired
f32-build-22819208-2093716 2020-09-16 12:43:56 expired
f32-build-22815815-2091540 2020-09-16 07:37:37 expired
f32-build-22815807-2091540 2020-09-16 07:37:25 expired
f32-build-22815788-2091540 2020-09-16 07:37:07 expired
f32-build-22782811-2081148 2020-09-14 13:40:24 expired
f32-build-22743814-2073759 2020-09-13 03:49:56 expired
f32-build-22715269-2067633 2020-09-12 00:13:29 expired
f32-build-22714336-2067633 2020-09-11 22:26:42 expired
f32-build-22710177-2063919 2020-09-11 14:58:14 expired